Time;durP1;ratioP1;P1;durP2;ratioP2;P2;SDS_P1;SDS_P2;PMS_P1;PMS_P2;Temp;Humidity;BMP_temperature;BMP_pressure;BME280_temperature;BME280_humidity;BME280_pressure;Samples;Min_cycle;Max_cycle;Signal;HPM_P1;HPM_P2
2022/06/09 00:01:26;;;;;;;5.03;4.23;;;12.30;99.90;;;;;;8365447;28;20203;-68
2022/06/09 00:05:29;;;;;;;5.03;4.53;;;12.30;99.90;;;;;;8360690;28;20181;-69
2022/06/09 00:09:37;;;;;;;5.37;4.70;;;12.20;99.90;;;;;;8360058;28;20182;-68
2022/06/09 00:13:38;;;;;;;5.10;4.60;;;12.20;99.90;;;;;;8362152;28;20201;-68
2022/06/09 00:17:40;;;;;;;5.03;4.57;;;12.10;99.90;;;;;;8363847;28;20192;-70
2022/06/09 00:21:41;;;;;;;4.83;4.20;;;12.10;99.90;;;;;;8365253;28;20275;-69
2022/06/09 00:25:42;;;;;;;4.37;3.97;;;12.00;99.90;;;;;;8367071;28;20243;-68
2022/06/09 00:29:43;;;;;;;3.63;3.33;;;11.80;99.90;;;;;;8365823;28;20213;-68
2022/06/09 00:33:44;;;;;;;4.10;3.70;;;11.70;99.90;;;;;;8372318;28;20209;-68
2022/06/09 00:37:44;;;;;;;3.70;3.40;;;11.60;99.90;;;;;;8368045;28;20186;-68
2022/06/09 00:41:45;;;;;;;4.07;3.60;;;11.50;99.90;;;;;;8372108;28;20211;-68
2022/06/09 00:45:55;;;;;;;3.93;3.53;;;11.40;99.90;;;;;;8368057;28;20185;-68
2022/06/09 00:50:11;;;;;;;4.23;3.83;;;11.30;99.90;;;;;;8365799;28;20194;-67
2022/06/09 00:54:25;;;;;;;4.50;4.10;;;11.30;99.90;;;;;;8374348;28;20214;-67
2022/06/09 00:58:29;;;;;;;4.83;4.03;;;11.20;99.90;;;;;;8381525;28;20206;-69
2022/06/09 01:02:30;;;;;;;4.57;4.17;;;11.10;99.90;;;;;;8377814;28;20229;-68
2022/06/09 01:06:39;;;;;;;4.87;4.27;;;11.10;99.90;;;;;;8374837;28;20211;-68
2022/06/09 01:10:40;;;;;;;6.23;4.73;;;11.10;99.90;;;;;;8379584;28;20189;-68
2022/06/09 01:14:41;;;;;;;4.93;4.53;;;11.00;99.90;;;;;;8380674;28;20209;-69
2022/06/09 01:18:53;;;;;;;5.87;5.27;;;11.00;99.90;;;;;;8379620;28;20251;-69
2022/06/09 01:23:28;;;;;;;5.70;5.20;;;11.00;99.90;;;;;;8374062;28;20189;-68
2022/06/09 01:27:55;;;;;;;4.77;4.33;;;10.90;99.90;;;;;;8374156;28;20202;-67
2022/06/09 01:32:13;;;;;;;5.47;4.47;;;10.80;99.90;;;;;;8368472;28;20208;-68
2022/06/09 01:36:49;;;;;;;4.73;4.33;;;10.80;99.90;;;;;;8372187;28;20210;-68
2022/06/09 01:40:50;;;;;;;4.83;4.30;;;10.70;99.90;;;;;;8365487;28;20200;-68
2022/06/09 01:44:56;;;;;;;5.30;4.70;;;10.70;99.90;;;;;;8376781;28;20276;-68
2022/06/09 01:49:12;;;;;;;4.87;4.40;;;10.60;99.90;;;;;;8370910;28;20191;-68
2022/06/09 01:53:27;;;;;;;5.10;4.63;;;10.50;99.90;;;;;;8372856;28;20287;-68
2022/06/09 01:57:33;;;;;;;5.13;4.63;;;10.50;99.90;;;;;;8379494;28;20182;-68
2022/06/09 02:01:44;;;;;;;5.33;4.83;;;10.40;99.90;;;;;;8372765;28;20491;-69
2022/06/09 02:05:49;;;;;;;7.57;6.00;;;10.30;99.90;;;;;;8366288;28;20186;-69
2022/06/09 02:09:50;;;;;;;7.20;6.07;;;10.30;99.90;;;;;;8371033;28;20194;-72
2022/06/09 02:13:55;;;;;;;7.07;6.37;;;10.30;99.90;;;;;;8371528;28;20271;-68
2022/06/09 02:17:56;;;;;;;5.67;5.07;;;10.20;99.90;;;;;;8365911;28;20179;-68
2022/06/09 02:21:57;;;;;;;6.23;4.90;;;10.20;99.90;;;;;;8377606;28;20188;-67
2022/06/09 02:25:58;;;;;;;5.00;4.50;;;10.10;99.90;;;;;;8371022;28;20212;-68
2022/06/09 02:29:59;;;;;;;5.53;4.83;;;10.00;99.90;;;;;;8364921;28;20215;-68
2022/06/09 02:34:00;;;;;;;6.57;5.73;;;9.90;99.90;;;;;;8365687;28;20211;-68
2022/06/09 02:38:01;;;;;;;6.93;6.23;;;9.90;99.90;;;;;;8368337;28;20192;-68
2022/06/09 02:42:02;;;;;;;6.10;5.47;;;9.90;99.90;;;;;;8367320;28;20186;-68
2022/06/09 02:46:04;;;;;;;6.63;6.03;;;10.00;99.90;;;;;;8369149;28;20185;-68
2022/06/09 02:50:06;;;;;;;8.70;6.23;;;10.00;99.90;;;;;;8376042;28;20191;-69
2022/06/09 02:54:10;;;;;;;6.60;5.90;;;10.00;99.90;;;;;;8374978;28;20213;-69
2022/06/09 02:58:11;;;;;;;7.50;6.13;;;10.00;99.90;;;;;;8373281;28;20200;-71
2022/06/09 03:02:12;;;;;;;8.07;7.27;;;10.00;99.90;;;;;;8381844;28;20240;-70
2022/06/09 03:06:13;;;;;;;8.33;6.47;;;10.10;99.90;;;;;;8376719;28;20185;-70
2022/06/09 03:10:14;;;;;;;7.57;6.77;;;10.20;99.90;;;;;;8369888;28;20182;-70
2022/06/09 03:14:15;;;;;;;9.13;7.83;;;10.30;99.90;;;;;;8372890;28;20759;-70
2022/06/09 03:18:17;;;;;;;7.63;6.40;;;10.70;99.90;;;;;;8376814;28;20181;-70
2022/06/09 03:22:19;;;;;;;7.87;7.07;;;11.00;99.90;;;;;;8369117;28;20432;-70
2022/06/09 03:26:19;;;;;;;8.27;7.40;;;11.20;99.90;;;;;;8373308;28;20188;-72
2022/06/09 03:30:20;;;;;;;7.73;7.03;;;11.50;99.90;;;;;;8377356;28;20205;-69
2022/06/09 03:34:21;;;;;;;5.83;5.20;;;12.00;99.90;;;;;;8371115;28;20213;-70
2022/06/09 03:38:22;;;;;;;6.73;4.87;;;12.70;99.90;;;;;;8374447;28;20189;-70
2022/06/09 03:42:22;;;;;;;4.60;4.20;;;13.40;99.90;;;;;;8372352;28;20183;-70
2022/06/09 03:46:23;;;;;;;5.03;4.53;;;13.60;99.90;;;;;;8383788;28;20190;-70
2022/06/09 03:50:26;;;;;;;4.97;4.47;;;13.50;99.90;;;;;;8375195;28;20185;-71
2022/06/09 03:54:27;;;;;;;7.90;7.10;;;13.20;99.90;;;;;;8367979;28;20714;-71
2022/06/09 03:58:28;;;;;;;6.20;5.60;;;13.00;99.90;;;;;;8365006;28;20185;-70
2022/06/09 04:02:28;;;;;;;7.10;6.40;;;12.90;99.90;;;;;;8368748;28;20248;-70
2022/06/09 04:06:34;;;;;;;8.47;6.30;;;12.90;99.90;;;;;;8366395;28;20183;-70
2022/06/09 04:10:35;;;;;;;5.30;4.80;;;12.90;99.90;;;;;;8370672;28;20230;-69
2022/06/09 04:14:35;;;;;;;6.70;5.43;;;13.00;99.90;;;;;;8372264;28;20208;-70
2022/06/09 04:18:36;;;;;;;6.73;6.03;;;13.20;99.90;;;;;;8373837;28;20186;-71
2022/06/09 04:22:37;;;;;;;8.73;7.80;;;13.30;99.90;;;;;;8368350;28;20185;-70
2022/06/09 04:26:39;;;;;;;11.97;8.33;;;13.50;99.90;;;;;;8371220;28;20392;-71
2022/06/09 04:30:40;;;;;;;10.27;7.30;;;13.70;99.90;;;;;;8364256;28;20182;-70
2022/06/09 04:34:42;;;;;;;14.60;9.83;;;14.50;99.90;;;;;;8363314;28;20278;-72
2022/06/09 04:38:43;;;;;;;11.63;10.17;;;15.90;99.90;;;;;;8365475;28;20212;-70
2022/06/09 04:42:44;;;;;;;7.90;6.20;;;16.40;1.00;;;;;;8366270;28;20193;-69
2022/06/09 04:46:44;;;;;;;11.70;7.47;;;16.60;1.00;;;;;;8371478;28;20185;-69
2022/06/09 04:50:45;;;;;;;9.20;8.23;;;16.80;1.00;;;;;;8368576;28;20272;-69
2022/06/09 04:54:46;;;;;;;10.77;7.67;;;17.00;1.00;;;;;;8367487;28;20303;-69
2022/06/09 04:58:48;;;;;;;12.33;10.97;;;17.30;99.90;;;;;;8374680;28;20192;-68
2022/06/09 05:02:51;;;;;;;12.20;8.90;;;17.50;99.90;;;;;;8371800;28;20205;-67
2022/06/09 05:06:52;;;;;;;11.93;9.83;;;17.40;1.00;;;;;;8367477;28;20197;-69
2022/06/09 05:10:52;;;;;;;10.27;6.80;;;17.40;25.00;;;;;;8363727;28;20499;-70
2022/06/09 05:14:53;;;;;;;5.93;5.33;;;17.50;1.00;;;;;;8363264;28;20259;-70
2022/06/09 05:18:54;;;;;;;7.60;6.80;;;17.70;99.90;;;;;;8369533;28;20189;-70
2022/06/09 05:22:55;;;;;;;6.00;5.40;;;18.00;1.00;;;;;;8371846;28;20220;-71
2022/06/09 05:26:56;;;;;;;7.83;6.03;;;18.20;99.90;;;;;;8372536;28;20227;-71
2022/06/09 05:30:57;;;;;;;6.10;5.50;;;18.60;1.00;;;;;;8374817;28;20271;-69
2022/06/09 05:34:58;;;;;;;9.10;7.17;;;19.10;99.90;;;;;;8378544;28;20204;-71
2022/06/09 05:47:38;;;;;;;7.93;5.27;;;19.40;8.70;;;;;;8375586;28;20224;-66
2022/06/09 05:51:39;;;;;;;5.23;4.20;;;19.70;77.40;;;;;;8372670;28;20271;-67
2022/06/09 05:55:40;;;;;;;3.87;3.50;;;19.90;1.00;;;;;;8369176;28;20205;-68
2022/06/09 05:59:40;;;;;;;3.07;2.73;;;20.10;1.00;;;;;;8379466;28;20204;-70
2022/06/09 06:03:42;;;;;;;5.37;3.73;;;20.40;1.00;;;;;;8378441;28;20268;-70
2022/06/09 06:07:42;;;;;;;5.00;3.40;;;20.60;99.90;;;;;;8376466;28;20229;-69
2022/06/09 06:11:44;;;;;;;3.90;3.47;;;20.40;1.70;;;;;;8375072;28;20215;-68
2022/06/09 06:15:45;;;;;;;5.50;3.50;;;20.20;99.90;;;;;;8369655;28;20283;-68
2022/06/09 06:19:46;;;;;;;6.73;3.27;;;19.70;99.90;;;;;;8368317;28;20193;-69
2022/06/09 06:23:47;;;;;;;4.57;3.33;;;19.60;99.90;;;;;;8375372;28;20221;-68
2022/06/09 06:27:48;;;;;;;4.00;3.47;;;19.90;1.00;;;;;;8366051;28;20213;-70
2022/06/09 06:31:49;;;;;;;5.80;3.83;;;20.10;99.90;;;;;;8367176;28;20198;-71
2022/06/09 06:35:50;;;;;;;6.67;3.40;;;20.10;99.90;;;;;;8376565;28;20243;-68
2022/06/09 06:39:51;;;;;;;5.90;3.40;;;20.00;99.90;;;;;;8375252;28;20196;-70
2022/06/09 06:43:52;;;;;;;4.07;3.40;;;19.90;99.90;;;;;;8369864;28;20177;-70
2022/06/09 06:47:52;;;;;;;6.00;3.97;;;20.10;99.90;;;;;;8373347;28;20231;-71
2022/06/09 06:51:53;;;;;;;4.87;3.77;;;20.30;99.90;;;;;;8374299;28;20239;-72
2022/06/09 06:55:54;;;;;;;5.37;3.67;;;20.00;99.90;;;;;;8369403;28;20210;-70
2022/06/09 06:59:55;;;;;;;4.87;3.90;;;19.90;99.90;;;;;;8363384;28;20189;-69
2022/06/09 07:03:57;;;;;;;5.50;3.93;;;20.00;1.00;;;;;;8364191;28;20192;-69
2022/06/09 07:07:58;;;;;;;3.37;3.07;;;20.20;99.90;;;;;;8370763;28;20181;-70
2022/06/09 07:11:58;;;;;;;5.60;4.03;;;20.40;99.90;;;;;;8370922;28;20241;-71
2022/06/09 07:15:59;;;;;;;5.77;3.83;;;20.20;99.90;;;;;;8372267;28;20205;-69
2022/06/09 07:20:00;;;;;;;3.80;3.40;;;20.10;99.90;;;;;;8371845;28;20434;-70
2022/06/09 07:24:01;;;;;;;4.90;3.40;;;20.10;1.00;;;;;;8364581;28;20173;-70
2022/06/09 07:28:02;;;;;;;3.47;3.17;;;20.00;1.00;;;;;;8372852;28;20232;-68
2022/06/09 07:32:03;;;;;;;4.20;3.80;;;19.90;1.00;;;;;;8372368;28;20263;-71
2022/06/09 07:36:09;;;;;;;5.03;3.40;;;19.90;55.30;;;;;;8371312;28;20232;-71
2022/06/09 07:40:10;;;;;;;4.27;3.57;;;19.70;99.90;;;;;;8369778;28;20181;-70
2022/06/09 07:44:12;;;;;;;3.93;3.40;;;19.70;1.00;;;;;;8363924;28;20236;-70
2022/06/09 07:48:14;;;;;;;4.23;3.70;;;19.90;99.90;;;;;;8366854;28;20188;-69
2022/06/09 07:52:14;;;;;;;4.20;3.57;;;20.20;99.90;;;;;;8365298;28;20188;-70
2022/06/09 07:56:16;;;;;;;8.97;3.80;;;20.40;1.00;;;;;;8362973;28;20205;-69
2022/06/09 08:00:18;;;;;;;4.73;2.80;;;20.30;1.00;;;;;;8368786;28;20178;-68
2022/06/09 08:04:19;;;;;;;4.00;2.93;;;20.10;1.00;;;;;;8370451;28;20203;-71
2022/06/09 08:08:20;;;;;;;4.03;3.43;;;20.00;27.80;;;;;;8368012;28;20181;-72
2022/06/09 08:12:21;;;;;;;4.43;3.23;;;19.80;99.90;;;;;;8373659;28;20193;-70
2022/06/09 08:16:22;;;;;;;3.37;2.87;;;19.70;1.00;;;;;;8360652;28;20209;-67
2022/06/09 08:20:26;;;;;;;3.10;2.80;;;19.80;99.90;;;;;;8367816;28;20257;-73
2022/06/09 08:24:27;;;;;;;3.40;3.10;;;19.80;99.90;;;;;;8362417;28;20185;-68
2022/06/09 08:28:27;;;;;;;4.13;2.40;;;19.90;99.90;;;;;;8359107;28;20284;-68
2022/06/09 08:32:28;;;;;;;2.70;2.50;;;19.80;99.90;;;;;;8363907;28;20177;-67
2022/06/09 08:36:29;;;;;;;4.63;3.10;;;19.70;99.90;;;;;;8360288;28;20296;-68
2022/06/09 08:40:58;;;;;;;3.53;3.00;;;19.60;1.00;;;;;;8369742;28;20178;-68
2022/06/09 08:45:03;;;;;;;3.90;2.90;;;19.70;1.00;;;;;;8369234;28;20187;-70
2022/06/09 08:49:06;;;;;;;3.13;2.87;;;19.80;99.90;;;;;;8367446;28;20177;-69
2022/06/09 08:53:13;;;;;;;3.77;2.17;;;19.90;99.90;;;;;;8372448;28;20200;-67
2022/06/09 08:57:22;;;;;;;3.40;2.63;;;20.20;99.90;;;;;;8372089;28;20206;-69
2022/06/09 09:01:38;;;;;;;2.00;1.90;;;20.50;98.60;;;;;;8370698;28;20190;-68
2022/06/09 09:05:46;;;;;;;5.47;3.07;;;20.80;33.90;;;;;;8370719;28;20194;-70
2022/06/09 09:09:47;;;;;;;3.47;3.17;;;20.90;1.00;;;;;;8371902;28;20318;-68
2022/06/09 09:14:00;;;;;;;4.87;3.17;;;21.00;1.00;;;;;;8373660;28;20332;-66
2022/06/09 09:18:09;;;;;;;3.00;2.70;;;21.00;99.90;;;;;;8380702;28;20178;-67
2022/06/09 09:22:30;;;;;;;3.33;2.53;;;21.20;99.90;;;;;;8378031;28;20181;-67
2022/06/09 09:26:48;;;;;;;3.07;2.80;;;21.50;49.40;;;;;;8365362;28;20220;-67
2022/06/09 09:31:16;;;;;;;5.20;2.77;;;21.80;9.90;;;;;;8380061;28;20186;-67
2022/06/09 09:35:40;;;;;;;4.30;3.27;;;21.90;9.90;;;;;;8373752;28;20210;-67
2022/06/09 09:39:46;;;;;;;5.03;3.20;;;21.90;1.00;;;;;;8372219;28;20182;-69
2022/06/09 09:43:47;;;;;;;4.00;3.40;;;22.30;1.00;;;;;;8373275;28;20384;-67
2022/06/09 09:48:00;;;;;;;3.90;3.50;;;22.70;99.90;;;;;;8368045;28;20197;-67
2022/06/09 09:52:01;;;;;;;3.97;3.17;;;22.60;99.90;;;;;;8370755;28;20587;-69
2022/06/09 09:56:31;;;;;;;3.97;2.80;;;22.60;1.00;;;;;;8365629;28;20290;-68
2022/06/09 10:00:34;;;;;;;3.40;3.10;;;22.90;1.00;;;;;;8376809;28;20231;-65
2022/06/09 10:09:14;;;;;;;4.87;3.80;;;22.70;1.00;;;;;;8367388;28;20188;-68
2022/06/09 10:13:16;;;;;;;3.40;3.00;;;22.20;79.40;;;;;;8367641;28;20197;-69
2022/06/09 10:17:37;;;;;;;4.77;3.43;;;22.20;99.90;;;;;;8371911;28;20185;-70
2022/06/09 10:21:52;;;;;;;2.80;2.43;;;22.50;1.00;;;;;;8373048;28;20177;-70
2022/06/09 10:26:25;;;;;;;3.27;2.97;;;23.00;99.90;;;;;;8367975;28;20197;-71
2022/06/09 10:30:40;;;;;;;4.20;3.00;;;23.50;99.90;;;;;;8368147;28;20189;-69
2022/06/09 10:35:02;;;;;;;4.37;2.90;;;23.80;15.20;;;;;;8373641;28;20214;-67
2022/06/09 10:39:18;;;;;;;3.50;2.67;;;24.20;67.60;;;;;;8369642;28;20185;-68
2022/06/09 10:43:38;;;;;;;2.73;2.53;;;24.60;30.30;;;;;;8372815;28;20193;-70
2022/06/09 10:57:42;;;;;;;2.63;2.43;;;25.40;99.90;;;;;;8366625;28;20192;-69
2022/06/09 11:01:44;;;;;;;3.00;2.80;;;25.50;99.90;;;;;;8369099;28;20194;-68
2022/06/09 11:05:57;;;;;;;4.17;2.83;;;25.50;99.90;;;;;;8370088;28;20231;-69
2022/06/09 11:10:06;;;;;;;8.73;6.53;;;25.50;99.90;;;;;;8367010;28;20181;-72
2022/06/09 11:14:48;;;;;;;3.83;3.00;;;25.60;99.90;;;;;;8369482;28;20217;-71
2022/06/09 11:18:58;;;;;;;3.40;3.03;;;25.40;99.90;;;;;;8365892;28;20184;-70
2022/06/09 11:23:22;;;;;;;4.40;4.00;;;25.20;99.90;;;;;;8367804;28;20180;-71
2022/06/09 11:27:51;;;;;;;4.57;2.50;;;25.00;99.90;;;;;;8365261;28;20200;-71
2022/06/09 11:32:21;;;;;;;3.27;2.60;;;23.90;1.00;;;;;;8363276;28;20252;-69
2022/06/09 11:36:39;;;;;;;4.30;2.60;;;23.00;99.90;;;;;;8370431;28;20263;-66
2022/06/09 11:41:04;;;;;;;4.43;2.53;;;22.70;1.00;;;;;;8375276;28;20177;-67
2022/06/09 11:45:57;;;;;;;3.10;2.37;;;22.50;99.90;;;;;;8364786;28;20289;-72
2022/06/09 11:50:04;;;;;;;2.73;2.30;;;22.50;99.90;;;;;;8351762;28;20200;-69
2022/06/09 11:54:26;;;;;;;3.37;2.27;;;22.80;99.90;;;;;;8369082;28;20197;-67
2022/06/09 11:58:36;;;;;;;3.47;2.20;;;23.30;99.90;;;;;;8361722;28;20173;-70
2022/06/09 12:02:57;;;;;;;2.97;2.10;;;23.80;99.90;;;;;;8368847;28;20204;-70
2022/06/09 12:07:26;;;;;;;2.27;2.07;;;24.30;1.00;;;;;;8357542;28;20196;-69
2022/06/09 12:11:50;;;;;;;2.50;2.10;;;24.60;1.00;;;;;;8365008;28;20174;-72
2022/06/09 12:15:59;;;;;;;3.30;1.90;;;24.80;1.00;;;;;;8364028;28;20212;-73
2022/06/09 12:20:08;;;;;;;2.77;2.20;;;24.60;99.90;;;;;;8365124;28;20276;-73
2022/06/09 12:24:23;;;;;;;2.47;1.90;;;24.20;99.90;;;;;;8365477;28;20181;-68
2022/06/09 12:28:56;;;;;;;2.37;1.83;;;24.00;1.00;;;;;;8365072;28;20193;-71
2022/06/09 12:33:15;;;;;;;4.73;2.03;;;23.90;1.00;;;;;;8369521;28;20215;-72
2022/06/09 12:37:24;;;;;;;1.87;1.50;;;23.90;1.00;;;;;;8370663;28;20185;-73
2022/06/09 12:41:31;;;;;;;1.60;1.17;;;23.90;1.00;;;;;;8369283;28;20185;-66
2022/06/09 12:45:36;;;;;;;2.70;1.10;;;23.80;1.00;;;;;;8364769;28;20505;-70
2022/06/09 12:49:37;;;;;;;2.53;0.90;;;23.80;1.00;;;;;;8366109;28;20190;-68
2022/06/09 12:53:58;;;;;;;2.40;1.20;;;23.60;1.00;;;;;;8367178;28;20225;-67
2022/06/09 12:58:23;;;;;;;4.03;1.07;;;23.00;99.90;;;;;;8365984;28;20241;-68
2022/06/09 13:02:30;;;;;;;2.83;1.30;;;22.70;99.90;;;;;;8366203;28;20201;-66
2022/06/09 13:06:40;;;;;;;2.57;1.40;;;22.50;99.90;;;;;;8359590;28;20185;-69
2022/06/09 13:10:53;;;;;;;2.60;1.50;;;22.30;99.90;;;;;;8357329;28;20194;-72
2022/06/09 13:14:54;;;;;;;1.67;1.20;;;22.30;99.90;;;;;;8357687;28;20209;-68
2022/06/09 13:18:59;;;;;;;1.97;1.30;;;22.40;99.90;;;;;;8363077;28;20221;-70
2022/06/09 13:23:00;;;;;;;3.57;1.50;;;22.40;99.90;;;;;;8367655;28;20194;-66
2022/06/09 13:27:07;;;;;;;4.70;1.90;;;22.20;99.90;;;;;;8362409;28;20309;-67
2022/06/09 13:31:27;;;;;;;2.67;1.87;;;22.00;99.90;;;;;;8356146;28;20181;-68
2022/06/09 13:35:41;;;;;;;3.07;1.73;;;22.00;99.90;;;;;;8363642;28;20214;-67
2022/06/09 13:39:50;;;;;;;5.47;1.47;;;22.20;99.90;;;;;;8368302;28;20186;-66
2022/06/09 13:43:55;;;;;;;1.83;1.30;;;22.40;99.90;;;;;;8370547;28;20209;-69
2022/06/09 13:48:12;;;;;;;2.80;1.50;;;22.50;99.90;;;;;;8370216;28;20188;-71
2022/06/09 13:52:31;;;;;;;2.23;1.43;;;22.60;99.90;;;;;;8369618;28;20186;-68
2022/06/09 13:56:34;;;;;;;2.90;1.40;;;22.70;99.90;;;;;;8369830;28;20237;-72
2022/06/09 14:00:40;;;;;;;3.73;1.30;;;22.80;99.90;;;;;;8369117;28;20408;-67
2022/06/09 14:04:42;;;;;;;2.27;1.50;;;22.90;94.40;;;;;;8371701;28;20209;-68
2022/06/09 14:08:46;;;;;;;2.93;1.50;;;22.80;99.90;;;;;;8365094;28;20575;-69
2022/06/09 14:12:48;;;;;;;1.97;1.37;;;23.00;99.90;;;;;;8370937;28;20324;-69
2022/06/09 14:16:50;;;;;;;4.10;1.30;;;22.70;99.90;;;;;;8366207;28;20287;-70
2022/06/09 14:20:52;;;;;;;3.90;1.37;;;22.60;99.90;;;;;;8364931;28;20181;-67
2022/06/09 14:24:53;;;;;;;0.90;0.90;;;22.50;99.90;;;;;;8371640;28;20181;-68
2022/06/09 14:28:55;;;;;;;3.53;1.30;;;22.60;99.90;;;;;;8362503;28;20202;-69
2022/06/09 14:32:57;;;;;;;1.33;1.00;;;22.90;99.90;;;;;;8370440;28;20205;-69
2022/06/09 14:36:58;;;;;;;2.63;0.97;;;23.10;96.30;;;;;;8366032;28;20518;-70
2022/06/09 14:40:59;;;;;;;7.57;1.70;;;23.50;1.00;;;;;;8367303;28;20181;-68
2022/06/09 14:45:00;;;;;;;1.50;1.30;;;23.40;1.00;;;;;;8367430;28;20208;-66
2022/06/09 14:49:01;;;;;;;1.57;1.30;;;23.30;11.50;;;;;;8374421;28;20177;-68
2022/06/09 14:53:02;;;;;;;3.27;1.40;;;23.20;1.00;;;;;;8370373;28;20264;-66
2022/06/09 14:57:03;;;;;;;2.07;1.37;;;22.90;17.20;;;;;;8376587;28;20183;-68
2022/06/09 15:01:04;;;;;;;2.33;1.27;;;23.30;99.90;;;;;;8367751;28;20189;-66
2022/06/09 15:05:06;;;;;;;1.40;1.13;;;23.40;1.00;;;;;;8370387;28;20186;-69
2022/06/09 15:09:07;;;;;;;2.00;1.30;;;23.20;1.00;;;;;;8370077;28;20182;-68
2022/06/09 15:13:08;;;;;;;4.13;1.47;;;23.00;10.60;;;;;;8367443;28;20228;-67
2022/06/09 15:17:12;;;;;;;2.43;1.30;;;22.90;18.50;;;;;;8366392;28;20186;-68
2022/06/09 15:21:12;;;;;;;2.00;0.93;;;22.70;16.90;;;;;;8376076;28;20181;-67
2022/06/09 15:25:14;;;;;;;1.33;1.10;;;22.30;99.90;;;;;;8367760;28;20278;-68
2022/06/09 15:29:15;;;;;;;4.20;1.43;;;22.10;99.90;;;;;;8367222;28;20205;-68
2022/06/09 15:33:21;;;;;;;2.53;1.40;;;22.00;99.90;;;;;;8374233;28;20185;-67
2022/06/09 15:37:22;;;;;;;3.20;1.33;;;21.90;99.90;;;;;;8372071;28;20184;-69
2022/06/09 15:41:23;;;;;;;2.77;1.30;;;21.90;99.90;;;;;;8371576;28;20177;-67
2022/06/09 15:45:24;;;;;;;1.73;1.30;;;22.00;99.90;;;;;;8361775;28;20189;-67
2022/06/09 15:49:24;;;;;;;3.97;1.67;;;22.00;99.90;;;;;;8369948;28;20280;-68
2022/06/09 15:53:25;;;;;;;3.37;1.70;;;21.90;99.90;;;;;;8367934;28;20263;-69
2022/06/09 15:57:26;;;;;;;2.50;2.00;;;21.70;99.90;;;;;;8362602;28;20182;-68
2022/06/09 16:01:27;;;;;;;2.57;1.60;;;21.80;99.90;;;;;;8371820;28;20200;-66
2022/06/09 16:05:29;;;;;;;3.77;1.67;;;21.90;99.90;;;;;;8366604;28;20196;-66
2022/06/09 16:09:30;;;;;;;2.90;1.57;;;21.90;99.90;;;;;;8374361;28;20193;-68
2022/06/09 16:13:32;;;;;;;3.83;1.33;;;22.00;99.90;;;;;;8370111;28;20235;-65
2022/06/09 16:17:36;;;;;;;2.67;1.53;;;22.10;99.90;;;;;;8370012;28;20201;-67
2022/06/09 16:21:36;;;;;;;1.50;1.20;;;22.10;99.90;;;;;;8363637;28;20185;-66
2022/06/09 16:25:39;;;;;;;2.67;1.30;;;22.00;99.90;;;;;;8371520;28;20189;-68
2022/06/09 16:29:40;;;;;;;1.70;1.17;;;22.00;99.90;;;;;;8370176;28;20206;-66
2022/06/09 16:33:40;;;;;;;1.80;1.20;;;22.00;99.90;;;;;;8366033;28;20396;-67
2022/06/09 16:37:41;;;;;;;1.97;1.50;;;21.80;99.90;;;;;;8368477;28;20205;-66
2022/06/09 16:41:45;;;;;;;0.93;0.90;;;21.80;99.90;;;;;;8372362;28;20177;-68
2022/06/09 16:45:47;;;;;;;3.00;0.90;;;21.70;99.90;;;;;;8365797;28;20189;-68
2022/06/09 16:49:48;;;;;;;2.10;0.80;;;21.60;99.90;;;;;;8373844;28;20347;-69
2022/06/09 16:53:48;;;;;;;1.43;1.13;;;21.40;99.90;;;;;;8368534;28;20211;-74
2022/06/09 16:57:52;;;;;;;4.90;0.80;;;21.20;99.90;;;;;;8368181;28;20196;-68
2022/06/09 17:01:53;;;;;;;1.63;1.03;;;21.10;1.00;;;;;;8367078;28;20219;-68
2022/06/09 17:05:57;;;;;;;2.07;0.90;;;21.00;1.00;;;;;;8360559;28;20212;-67
2022/06/09 17:09:58;;;;;;;6.47;1.10;;;20.80;99.90;;;;;;8360563;28;20181;-67
2022/06/09 17:13:59;;;;;;;2.30;0.93;;;20.60;99.90;;;;;;8369098;28;20200;-67
2022/06/09 17:18:00;;;;;;;1.13;1.00;;;20.60;1.00;;;;;;8370478;28;20186;-68
2022/06/09 17:22:00;;;;;;;2.17;0.83;;;20.60;1.00;;;;;;8368494;28;20177;-66
2022/06/09 17:26:02;;;;;;;1.20;0.90;;;20.60;1.00;;;;;;8372841;28;20188;-69
2022/06/09 17:30:07;;;;;;;1.27;0.90;;;20.70;1.00;;;;;;8369375;28;20221;-67
2022/06/09 17:34:08;;;;;;;1.60;0.87;;;20.70;1.00;;;;;;8375524;28;20198;-70
2022/06/09 17:38:09;;;;;;;1.10;0.80;;;20.60;1.00;;;;;;8365115;28;20233;-67
2022/06/09 17:42:10;;;;;;;5.43;1.20;;;20.50;1.00;;;;;;8371567;28;20178;-70
2022/06/09 17:46:11;;;;;;;1.47;0.97;;;20.40;1.00;;;;;;8365154;28;20252;-65
2022/06/09 17:50:15;;;;;;;1.73;0.80;;;20.40;99.90;;;;;;8361785;28;20189;-68
2022/06/09 17:54:15;;;;;;;2.03;0.90;;;20.20;99.90;;;;;;8369260;28;20220;-66
2022/06/09 17:58:20;;;;;;;1.03;0.70;;;20.10;99.90;;;;;;8374829;28;20182;-67
2022/06/09 18:02:21;;;;;;;1.23;0.90;;;19.90;99.90;;;;;;8377724;28;20197;-69
2022/06/09 18:06:22;;;;;;;1.97;0.87;;;19.80;1.00;;;;;;8379686;28;20212;-66
2022/06/09 18:10:27;;;;;;;1.30;0.80;;;19.70;1.00;;;;;;8370672;28;20173;-68
2022/06/09 18:14:28;;;;;;;1.43;0.90;;;19.60;70.40;;;;;;8369028;28;20533;-68
2022/06/09 18:18:29;;;;;;;0.77;0.70;;;19.50;99.90;;;;;;8373233;28;20226;-66
2022/06/09 18:22:30;;;;;;;1.10;0.93;;;19.40;99.90;;;;;;8365800;28;20189;-69
2022/06/09 18:26:32;;;;;;;1.37;0.80;;;19.40;99.90;;;;;;8371392;28;20203;-69
2022/06/09 18:30:34;;;;;;;2.30;1.00;;;19.30;99.90;;;;;;8368157;28;20188;-67
2022/06/09 18:34:35;;;;;;;1.50;0.90;;;19.20;99.90;;;;;;8370949;28;20289;-68
2022/06/09 18:38:36;;;;;;;2.60;1.10;;;19.10;99.90;;;;;;8374267;28;20188;-67
2022/06/09 18:42:40;;;;;;;3.93;1.33;;;19.00;99.90;;;;;;8377904;28;20193;-68
2022/06/09 18:46:42;;;;;;;2.67;1.47;;;18.90;99.90;;;;;;8372041;28;20275;-68
2022/06/09 18:50:44;;;;;;;1.70;1.30;;;18.80;99.90;;;;;;8377757;28;20185;-70
2022/06/09 18:54:45;;;;;;;3.40;1.60;;;18.80;99.90;;;;;;8369261;28;20206;-66
2022/06/09 18:58:46;;;;;;;3.03;1.50;;;18.70;99.90;;;;;;8363847;28;20200;-70
2022/06/09 19:02:47;;;;;;;2.80;1.70;;;18.70;1.00;;;;;;8369517;28;20228;-67
2022/06/09 19:06:49;;;;;;;1.70;1.43;;;18.50;1.00;;;;;;8386652;28;20193;-66
2022/06/09 19:10:52;;;;;;;3.13;1.53;;;18.50;1.00;;;;;;8371286;28;20276;-66
2022/06/09 19:14:53;;;;;;;4.33;1.53;;;18.40;99.90;;;;;;8377008;28;20200;-67
2022/06/09 19:18:53;;;;;;;3.77;1.77;;;18.40;99.90;;;;;;8376228;28;20192;-66
2022/06/09 19:22:55;;;;;;;1.97;1.40;;;18.40;99.90;;;;;;8379936;28;20181;-66
2022/06/09 19:26:59;;;;;;;2.57;1.63;;;18.30;99.90;;;;;;8366414;28;20207;-67
2022/06/09 19:31:01;;;;;;;2.53;2.07;;;18.30;1.00;;;;;;8363658;28;20181;-67
2022/06/09 19:35:05;;;;;;;2.63;2.07;;;18.20;1.00;;;;;;8369344;28;20212;-67
2022/06/09 19:39:07;;;;;;;2.60;1.80;;;18.20;91.70;;;;;;8371655;28;20177;-63
2022/06/09 19:43:08;;;;;;;2.60;2.40;;;18.10;99.90;;;;;;8375376;28;20235;-63
2022/06/09 19:47:19;;;;;;;5.40;2.90;;;18.10;99.90;;;;;;8367951;28;20185;-65
2022/06/09 19:51:20;;;;;;;3.70;2.60;;;18.00;1.00;;;;;;8376034;28;20234;-66
2022/06/09 19:55:22;;;;;;;3.93;2.63;;;18.00;99.90;;;;;;8370391;28;20293;-66
2022/06/09 19:59:23;;;;;;;3.67;2.77;;;18.00;99.90;;;;;;8372168;28;20182;-66
2022/06/09 20:03:24;;;;;;;3.10;2.80;;;17.90;1.00;;;;;;8370409;28;20246;-65
2022/06/09 20:07:25;;;;;;;2.77;2.50;;;17.90;1.00;;;;;;8372741;28;20276;-65
2022/06/09 20:11:29;;;;;;;2.90;2.70;;;17.90;1.00;;;;;;8362540;28;20260;-65
2022/06/09 20:15:32;;;;;;;4.87;2.70;;;17.90;60.70;;;;;;8364647;28;20213;-66
2022/06/09 20:19:35;;;;;;;3.13;2.83;;;17.80;1.00;;;;;;8365101;28;20177;-64
2022/06/09 20:23:36;;;;;;;6.17;3.00;;;17.80;1.00;;;;;;8366779;28;20185;-63
2022/06/09 20:27:37;;;;;;;3.00;2.70;;;17.80;99.90;;;;;;8372230;28;20212;-65
2022/06/09 20:31:38;;;;;;;4.20;3.40;;;17.70;97.20;;;;;;8369311;28;20257;-65
2022/06/09 20:35:39;;;;;;;4.97;3.20;;;17.70;99.90;;;;;;8363845;28;20224;-66
2022/06/09 20:39:41;;;;;;;4.73;3.30;;;17.70;1.00;;;;;;8375366;28;20185;-66
2022/06/09 20:43:43;;;;;;;5.10;3.67;;;17.70;1.00;;;;;;8372118;28;20209;-65
2022/06/09 20:47:45;;;;;;;3.73;3.33;;;17.70;99.90;;;;;;8372257;28;20189;-64
2022/06/09 20:51:46;;;;;;;3.80;3.37;;;17.70;1.00;;;;;;8370951;28;20438;-66
2022/06/09 20:55:52;;;;;;;3.60;3.30;;;17.60;99.90;;;;;;8369495;28;20213;-64
2022/06/09 20:59:53;;;;;;;6.63;4.13;;;17.60;99.90;;;;;;8379405;28;20251;-64
2022/06/09 21:03:54;;;;;;;4.73;3.53;;;17.60;1.00;;;;;;8376868;28;20201;-65
2022/06/09 21:07:54;;;;;;;3.97;3.57;;;17.50;1.00;;;;;;8374445;28;20188;-65
2022/06/09 21:20:36;;;;;;;5.00;3.70;;;17.50;1.00;;;;;;8380606;28;20196;-65
2022/06/09 21:24:37;;;;;;;5.20;4.17;;;17.50;16.90;;;;;;8373926;28;20189;-64
2022/06/09 21:28:39;;;;;;;4.30;3.87;;;17.40;99.90;;;;;;8376064;28;20216;-64
2022/06/09 21:32:40;;;;;;;4.63;4.07;;;17.40;1.00;;;;;;8372520;28;20193;-66
2022/06/09 21:36:42;;;;;;;6.30;3.70;;;17.40;1.00;;;;;;8372534;28;20268;-63
2022/06/09 21:40:42;;;;;;;4.93;3.90;;;17.40;21.20;;;;;;8380441;28;20182;-64
2022/06/09 21:44:44;;;;;;;7.23;4.60;;;17.40;99.90;;;;;;8378606;28;20259;-64
2022/06/09 21:48:45;;;;;;;7.50;4.67;;;17.30;99.90;;;;;;8369075;28;20276;-64
2022/06/09 21:52:46;;;;;;;6.63;4.73;;;17.30;1.00;;;;;;8367793;28;20230;-63